sensor_id;sensor_type;location;lat;lon;timestamp;P1;durP1;ratioP1;P2;durP2;ratioP2
39956;SDS011;48483;44.640;7.494;2023-09-08T00:00:32;7.38;;;5.85;;
39956;SDS011;48483;44.640;7.494;2023-09-08T00:02:58;10.80;;;6.03;;
39956;SDS011;48483;44.640;7.494;2023-09-08T00:05:27;9.13;;;6.18;;
39956;SDS011;48483;44.640;7.494;2023-09-08T00:07:53;6.35;;;5.68;;
39956;SDS011;48483;44.640;7.494;2023-09-08T00:10:20;9.05;;;5.63;;
39956;SDS011;48483;44.640;7.494;2023-09-08T00:12:47;10.07;;;5.90;;
39956;SDS011;48483;44.640;7.494;2023-09-08T00:15:14;10.27;;;6.47;;
39956;SDS011;48483;44.640;7.494;2023-09-08T00:17:42;9.20;;;6.70;;
39956;SDS011;48483;44.640;7.494;2023-09-08T00:20:16;8.25;;;6.57;;
39956;SDS011;48483;44.640;7.494;2023-09-08T00:22:44;9.43;;;6.68;;
39956;SDS011;48483;44.640;7.494;2023-09-08T00:25:11;7.90;;;6.35;;
39956;SDS011;48483;44.640;7.494;2023-09-08T00:27:38;14.05;;;7.20;;
39956;SDS011;48483;44.640;7.494;2023-09-08T00:30:06;9.30;;;6.65;;
39956;SDS011;48483;44.640;7.494;2023-09-08T00:32:35;8.32;;;6.85;;
39956;SDS011;48483;44.640;7.494;2023-09-08T00:35:05;8.13;;;6.88;;
39956;SDS011;48483;44.640;7.494;2023-09-08T00:37:32;8.90;;;6.55;;
39956;SDS011;48483;44.640;7.494;2023-09-08T00:40:01;9.45;;;7.18;;
39956;SDS011;48483;44.640;7.494;2023-09-08T00:42:29;10.82;;;6.63;;
39956;SDS011;48483;44.640;7.494;2023-09-08T00:44:55;8.55;;;7.28;;
39956;SDS011;48483;44.640;7.494;2023-09-08T00:47:22;8.48;;;6.30;;
39956;SDS011;48483;44.640;7.494;2023-09-08T00:49:49;26.98;;;7.90;;
39956;SDS011;48483;44.640;7.494;2023-09-08T00:52:18;11.45;;;6.10;;
39956;SDS011;48483;44.640;7.494;2023-09-08T00:54:53;8.90;;;6.55;;
39956;SDS011;48483;44.640;7.494;2023-09-08T00:57:21;7.55;;;6.63;;
39956;SDS011;48483;44.640;7.494;2023-09-08T00:59:48;7.93;;;5.88;;
39956;SDS011;48483;44.640;7.494;2023-09-08T01:02:15;7.32;;;6.18;;
39956;SDS011;48483;44.640;7.494;2023-09-08T01:04:43;7.55;;;6.35;;
39956;SDS011;48483;44.640;7.494;2023-09-08T01:07:14;9.75;;;6.88;;
39956;SDS011;48483;44.640;7.494;2023-09-08T01:09:41;9.98;;;6.03;;
39956;SDS011;48483;44.640;7.494;2023-09-08T01:12:08;8.60;;;6.47;;
39956;SDS011;48483;44.640;7.494;2023-09-08T01:14:37;8.88;;;6.38;;
39956;SDS011;48483;44.640;7.494;2023-09-08T01:17:04;7.60;;;6.00;;
39956;SDS011;48483;44.640;7.494;2023-09-08T01:19:33;7.95;;;6.38;;
39956;SDS011;48483;44.640;7.494;2023-09-08T01:25:01;8.93;;;6.63;;
39956;SDS011;48483;44.640;7.494;2023-09-08T01:27:38;9.23;;;6.53;;
39956;SDS011;48483;44.640;7.494;2023-09-08T01:30:12;7.05;;;5.75;;
39956;SDS011;48483;44.640;7.494;2023-09-08T01:32:40;8.27;;;6.28;;
39956;SDS011;48483;44.640;7.494;2023-09-08T01:35:08;9.35;;;6.80;;
39956;SDS011;48483;44.640;7.494;2023-09-08T01:37:38;7.07;;;6.10;;
39956;SDS011;48483;44.640;7.494;2023-09-08T01:42:36;9.35;;;7.05;;
39956;SDS011;48483;44.640;7.494;2023-09-08T01:45:04;10.07;;;7.43;;
39956;SDS011;48483;44.640;7.494;2023-09-08T01:47:31;8.25;;;6.85;;
39956;SDS011;48483;44.640;7.494;2023-09-08T01:49:59;9.85;;;6.82;;
39956;SDS011;48483;44.640;7.494;2023-09-08T01:52:27;8.43;;;6.63;;
39956;SDS011;48483;44.640;7.494;2023-09-08T01:54:54;8.48;;;5.72;;
39956;SDS011;48483;44.640;7.494;2023-09-08T01:57:23;6.95;;;6.25;;
39956;SDS011;48483;44.640;7.494;2023-09-08T01:59:50;7.50;;;6.10;;
39956;SDS011;48483;44.640;7.494;2023-09-08T02:02:16;8.50;;;6.70;;
39956;SDS011;48483;44.640;7.494;2023-09-08T02:04:44;8.38;;;6.45;;
39956;SDS011;48483;44.640;7.494;2023-09-08T02:07:11;6.97;;;6.15;;
39956;SDS011;48483;44.640;7.494;2023-09-08T02:09:38;9.20;;;6.30;;
39956;SDS011;48483;44.640;7.494;2023-09-08T02:12:06;9.75;;;6.45;;
39956;SDS011;48483;44.640;7.494;2023-09-08T02:14:34;10.65;;;6.20;;
39956;SDS011;48483;44.640;7.494;2023-09-08T02:17:00;10.50;;;6.68;;
39956;SDS011;48483;44.640;7.494;2023-09-08T02:19:28;7.13;;;6.43;;
39956;SDS011;48483;44.640;7.494;2023-09-08T02:21:55;7.70;;;6.25;;
39956;SDS011;48483;44.640;7.494;2023-09-08T02:24:21;7.78;;;6.57;;
39956;SDS011;48483;44.640;7.494;2023-09-08T02:26:49;7.70;;;6.43;;
39956;SDS011;48483;44.640;7.494;2023-09-08T02:29:16;11.35;;;6.10;;
39956;SDS011;48483;44.640;7.494;2023-09-08T02:31:45;7.32;;;6.57;;
39956;SDS011;48483;44.640;7.494;2023-09-08T02:34:13;7.60;;;6.13;;
39956;SDS011;48483;44.640;7.494;2023-09-08T02:36:40;8.30;;;7.18;;
39956;SDS011;48483;44.640;7.494;2023-09-08T02:39:07;8.25;;;6.47;;
39956;SDS011;48483;44.640;7.494;2023-09-08T02:41:34;8.68;;;6.35;;
39956;SDS011;48483;44.640;7.494;2023-09-08T02:44:01;7.97;;;6.53;;
39956;SDS011;48483;44.640;7.494;2023-09-08T02:46:28;8.88;;;7.05;;
39956;SDS011;48483;44.640;7.494;2023-09-08T02:48:56;7.95;;;6.00;;
39956;SDS011;48483;44.640;7.494;2023-09-08T02:51:23;11.20;;;6.93;;
39956;SDS011;48483;44.640;7.494;2023-09-08T02:53:50;8.63;;;6.70;;
39956;SDS011;48483;44.640;7.494;2023-09-08T02:56:16;8.60;;;6.90;;
39956;SDS011;48483;44.640;7.494;2023-09-08T02:58:43;10.43;;;6.60;;
39956;SDS011;48483;44.640;7.494;2023-09-08T03:01:10;6.93;;;5.97;;
39956;SDS011;48483;44.640;7.494;2023-09-08T03:03:39;7.47;;;6.32;;
39956;SDS011;48483;44.640;7.494;2023-09-08T03:06:08;9.85;;;7.30;;
39956;SDS011;48483;44.640;7.494;2023-09-08T03:08:35;8.25;;;6.47;;
39956;SDS011;48483;44.640;7.494;2023-09-08T03:11:03;8.63;;;6.35;;
39956;SDS011;48483;44.640;7.494;2023-09-08T03:13:34;9.35;;;6.78;;
39956;SDS011;48483;44.640;7.494;2023-09-08T03:16:02;8.00;;;6.20;;
39956;SDS011;48483;44.640;7.494;2023-09-08T03:18:30;10.50;;;6.90;;
39956;SDS011;48483;44.640;7.494;2023-09-08T03:20:58;8.98;;;6.28;;
39956;SDS011;48483;44.640;7.494;2023-09-08T03:23:27;9.23;;;6.53;;
39956;SDS011;48483;44.640;7.494;2023-09-08T03:25:54;11.05;;;6.80;;
39956;SDS011;48483;44.640;7.494;2023-09-08T03:28:21;10.85;;;6.65;;
39956;SDS011;48483;44.640;7.494;2023-09-08T03:30:48;9.05;;;6.53;;
39956;SDS011;48483;44.640;7.494;2023-09-08T03:33:14;7.82;;;6.03;;
39956;SDS011;48483;44.640;7.494;2023-09-08T03:35:41;9.85;;;6.13;;
39956;SDS011;48483;44.640;7.494;2023-09-08T03:38:08;6.93;;;6.00;;
39956;SDS011;48483;44.640;7.494;2023-09-08T03:40:36;9.13;;;6.72;;
39956;SDS011;48483;44.640;7.494;2023-09-08T03:43:04;7.15;;;5.38;;
39956;SDS011;48483;44.640;7.494;2023-09-08T03:45:30;8.93;;;6.55;;
39956;SDS011;48483;44.640;7.494;2023-09-08T03:47:57;13.40;;;6.72;;
39956;SDS011;48483;44.640;7.494;2023-09-08T03:50:24;16.88;;;8.93;;
39956;SDS011;48483;44.640;7.494;2023-09-08T03:52:50;7.43;;;6.43;;
39956;SDS011;48483;44.640;7.494;2023-09-08T03:55:17;10.32;;;6.00;;
39956;SDS011;48483;44.640;7.494;2023-09-08T03:57:45;12.02;;;7.75;;
39956;SDS011;48483;44.640;7.494;2023-09-08T04:00:14;7.47;;;6.20;;
39956;SDS011;48483;44.640;7.494;2023-09-08T04:02:47;8.75;;;6.07;;
39956;SDS011;48483;44.640;7.494;2023-09-08T04:05:15;10.13;;;6.80;;
39956;SDS011;48483;44.640;7.494;2023-09-08T04:07:42;10.00;;;7.18;;
39956;SDS011;48483;44.640;7.494;2023-09-08T04:10:09;8.43;;;6.63;;
39956;SDS011;48483;44.640;7.494;2023-09-08T04:12:36;8.35;;;6.88;;
39956;SDS011;48483;44.640;7.494;2023-09-08T04:15:05;11.98;;;6.82;;
39956;SDS011;48483;44.640;7.494;2023-09-08T04:17:32;7.05;;;6.03;;
39956;SDS011;48483;44.640;7.494;2023-09-08T04:19:59;9.82;;;6.38;;
39956;SDS011;48483;44.640;7.494;2023-09-08T04:22:26;9.52;;;6.20;;
39956;SDS011;48483;44.640;7.494;2023-09-08T04:24:52;9.55;;;6.57;;
39956;SDS011;48483;44.640;7.494;2023-09-08T04:27:20;11.05;;;6.13;;
39956;SDS011;48483;44.640;7.494;2023-09-08T04:29:47;7.60;;;6.90;;
39956;SDS011;48483;44.640;7.494;2023-09-08T04:32:15;8.73;;;6.63;;
39956;SDS011;48483;44.640;7.494;2023-09-08T04:34:42;9.35;;;7.00;;
39956;SDS011;48483;44.640;7.494;2023-09-08T04:37:08;7.97;;;6.80;;
39956;SDS011;48483;44.640;7.494;2023-09-08T04:39:35;7.93;;;6.60;;
39956;SDS011;48483;44.640;7.494;2023-09-08T04:42:06;8.60;;;6.43;;
39956;SDS011;48483;44.640;7.494;2023-09-08T04:44:33;9.52;;;5.90;;
39956;SDS011;48483;44.640;7.494;2023-09-08T04:47:00;12.85;;;7.18;;
39956;SDS011;48483;44.640;7.494;2023-09-08T04:49:28;8.25;;;7.18;;
39956;SDS011;48483;44.640;7.494;2023-09-08T04:51:56;10.48;;;7.30;;
39956;SDS011;48483;44.640;7.494;2023-09-08T04:54:24;9.77;;;7.35;;
39956;SDS011;48483;44.640;7.494;2023-09-08T04:56:54;9.63;;;7.35;;
39956;SDS011;48483;44.640;7.494;2023-09-08T04:59:21;9.32;;;7.28;;
39956;SDS011;48483;44.640;7.494;2023-09-08T05:01:49;8.95;;;6.95;;
39956;SDS011;48483;44.640;7.494;2023-09-08T05:04:17;8.13;;;7.00;;
39956;SDS011;48483;44.640;7.494;2023-09-08T05:06:46;9.85;;;6.90;;
39956;SDS011;48483;44.640;7.494;2023-09-08T05:11:42;8.90;;;8.00;;
39956;SDS011;48483;44.640;7.494;2023-09-08T05:14:09;10.82;;;7.13;;
39956;SDS011;48483;44.640;7.494;2023-09-08T05:16:36;11.85;;;6.82;;
39956;SDS011;48483;44.640;7.494;2023-09-08T05:19:07;9.75;;;7.13;;
39956;SDS011;48483;44.640;7.494;2023-09-08T05:21:36;10.05;;;7.47;;
39956;SDS011;48483;44.640;7.494;2023-09-08T05:24:05;10.20;;;6.80;;
39956;SDS011;48483;44.640;7.494;2023-09-08T05:26:33;9.38;;;7.43;;
39956;SDS011;48483;44.640;7.494;2023-09-08T05:29:00;10.95;;;7.35;;
39956;SDS011;48483;44.640;7.494;2023-09-08T05:31:27;9.65;;;7.47;;
39956;SDS011;48483;44.640;7.494;2023-09-08T05:33:54;10.57;;;7.88;;
39956;SDS011;48483;44.640;7.494;2023-09-08T05:36:21;10.25;;;7.45;;
39956;SDS011;48483;44.640;7.494;2023-09-08T05:38:48;10.88;;;7.57;;
39956;SDS011;48483;44.640;7.494;2023-09-08T05:41:16;10.75;;;7.43;;
39956;SDS011;48483;44.640;7.494;2023-09-08T05:43:44;14.43;;;8.50;;
39956;SDS011;48483;44.640;7.494;2023-09-08T05:46:11;9.50;;;7.57;;
39956;SDS011;48483;44.640;7.494;2023-09-08T05:48:39;11.00;;;6.20;;
39956;SDS011;48483;44.640;7.494;2023-09-08T05:51:06;13.48;;;8.00;;
39956;SDS011;48483;44.640;7.494;2023-09-08T05:53:33;8.35;;;7.40;;
39956;SDS011;48483;44.640;7.494;2023-09-08T05:56:01;11.63;;;7.38;;
39956;SDS011;48483;44.640;7.494;2023-09-08T05:58:30;11.65;;;6.80;;
39956;SDS011;48483;44.640;7.494;2023-09-08T06:00:57;9.82;;;6.40;;
39956;SDS011;48483;44.640;7.494;2023-09-08T06:03:24;9.57;;;7.38;;
39956;SDS011;48483;44.640;7.494;2023-09-08T06:05:52;8.63;;;7.18;;
39956;SDS011;48483;44.640;7.494;2023-09-08T06:08:20;13.65;;;7.80;;
39956;SDS011;48483;44.640;7.494;2023-09-08T06:10:47;8.93;;;7.40;;
39956;SDS011;48483;44.640;7.494;2023-09-08T06:13:13;10.75;;;8.15;;
39956;SDS011;48483;44.640;7.494;2023-09-08T06:15:43;10.68;;;8.13;;
39956;SDS011;48483;44.640;7.494;2023-09-08T06:18:11;9.32;;;7.32;;
39956;SDS011;48483;44.640;7.494;2023-09-08T06:20:43;10.23;;;7.97;;
39956;SDS011;48483;44.640;7.494;2023-09-08T06:23:10;13.38;;;8.40;;
39956;SDS011;48483;44.640;7.494;2023-09-08T06:25:37;11.75;;;8.82;;
39956;SDS011;48483;44.640;7.494;2023-09-08T06:28:04;11.43;;;8.32;;
39956;SDS011;48483;44.640;7.494;2023-09-08T06:30:32;10.20;;;7.40;;
39956;SDS011;48483;44.640;7.494;2023-09-08T06:33:00;9.98;;;7.82;;
39956;SDS011;48483;44.640;7.494;2023-09-08T06:35:27;9.80;;;7.85;;
39956;SDS011;48483;44.640;7.494;2023-09-08T06:37:56;10.77;;;7.65;;
39956;SDS011;48483;44.640;7.494;2023-09-08T06:40:24;9.20;;;7.38;;
39956;SDS011;48483;44.640;7.494;2023-09-08T06:42:51;9.02;;;7.28;;
39956;SDS011;48483;44.640;7.494;2023-09-08T06:45:28;8.80;;;6.95;;
39956;SDS011;48483;44.640;7.494;2023-09-08T06:47:54;10.85;;;7.20;;
39956;SDS011;48483;44.640;7.494;2023-09-08T06:50:23;9.75;;;7.05;;
39956;SDS011;48483;44.640;7.494;2023-09-08T06:52:50;11.50;;;7.55;;
39956;SDS011;48483;44.640;7.494;2023-09-08T06:55:16;9.93;;;7.95;;
39956;SDS011;48483;44.640;7.494;2023-09-08T06:57:44;9.25;;;6.75;;
39956;SDS011;48483;44.640;7.494;2023-09-08T07:00:12;9.07;;;6.35;;
39956;SDS011;48483;44.640;7.494;2023-09-08T07:02:39;11.05;;;7.43;;
39956;SDS011;48483;44.640;7.494;2023-09-08T07:05:06;12.25;;;7.35;;
39956;SDS011;48483;44.640;7.494;2023-09-08T07:07:36;9.63;;;7.18;;
39956;SDS011;48483;44.640;7.494;2023-09-08T07:10:04;8.02;;;6.88;;
39956;SDS011;48483;44.640;7.494;2023-09-08T07:12:31;9.30;;;6.78;;
39956;SDS011;48483;44.640;7.494;2023-09-08T07:15:04;12.38;;;7.03;;
39956;SDS011;48483;44.640;7.494;2023-09-08T07:17:32;8.07;;;6.95;;
39956;SDS011;48483;44.640;7.494;2023-09-08T07:19:59;11.02;;;7.78;;
39956;SDS011;48483;44.640;7.494;2023-09-08T07:22:25;8.80;;;6.82;;
39956;SDS011;48483;44.640;7.494;2023-09-08T07:24:54;8.30;;;7.45;;
39956;SDS011;48483;44.640;7.494;2023-09-08T07:27:20;9.15;;;7.00;;
39956;SDS011;48483;44.640;7.494;2023-09-08T07:29:47;10.45;;;6.43;;
39956;SDS011;48483;44.640;7.494;2023-09-08T07:32:16;13.35;;;7.30;;
39956;SDS011;48483;44.640;7.494;2023-09-08T07:34:42;11.35;;;7.32;;
39956;SDS011;48483;44.640;7.494;2023-09-08T07:37:09;10.40;;;7.38;;
39956;SDS011;48483;44.640;7.494;2023-09-08T07:39:36;9.70;;;7.38;;
39956;SDS011;48483;44.640;7.494;2023-09-08T07:42:05;9.82;;;7.47;;
39956;SDS011;48483;44.640;7.494;2023-09-08T07:44:31;9.02;;;7.18;;
39956;SDS011;48483;44.640;7.494;2023-09-08T07:46:59;12.50;;;6.88;;
39956;SDS011;48483;44.640;7.494;2023-09-08T07:49:26;7.75;;;6.95;;
39956;SDS011;48483;44.640;7.494;2023-09-08T07:51:52;10.48;;;7.07;;
39956;SDS011;48483;44.640;7.494;2023-09-08T07:54:19;9.65;;;6.65;;
39956;SDS011;48483;44.640;7.494;2023-09-08T07:56:45;9.52;;;7.15;;
39956;SDS011;48483;44.640;7.494;2023-09-08T07:59:14;6.97;;;5.20;;
39956;SDS011;48483;44.640;7.494;2023-09-08T08:01:40;8.80;;;6.28;;
39956;SDS011;48483;44.640;7.494;2023-09-08T08:04:07;7.68;;;5.47;;
39956;SDS011;48483;44.640;7.494;2023-09-08T08:06:34;7.90;;;5.93;;
39956;SDS011;48483;44.640;7.494;2023-09-08T08:09:00;10.07;;;6.15;;
39956;SDS011;48483;44.640;7.494;2023-09-08T08:11:27;8.30;;;6.80;;
39956;SDS011;48483;44.640;7.494;2023-09-08T08:13:54;9.02;;;7.20;;
39956;SDS011;48483;44.640;7.494;2023-09-08T08:16:23;8.93;;;6.45;;
39956;SDS011;48483;44.640;7.494;2023-09-08T08:18:50;7.82;;;6.63;;
39956;SDS011;48483;44.640;7.494;2023-09-08T08:21:17;8.48;;;7.57;;
39956;SDS011;48483;44.640;7.494;2023-09-08T08:23:43;10.32;;;6.20;;
39956;SDS011;48483;44.640;7.494;2023-09-08T08:26:10;11.35;;;7.68;;
39956;SDS011;48483;44.640;7.494;2023-09-08T08:28:37;7.82;;;6.82;;
39956;SDS011;48483;44.640;7.494;2023-09-08T08:31:03;10.73;;;8.13;;
39956;SDS011;48483;44.640;7.494;2023-09-08T08:33:32;9.48;;;7.97;;
39956;SDS011;48483;44.640;7.494;2023-09-08T08:35:58;10.43;;;8.07;;
39956;SDS011;48483;44.640;7.494;2023-09-08T08:38:26;10.23;;;7.47;;
39956;SDS011;48483;44.640;7.494;2023-09-08T08:40:52;10.75;;;8.32;;
39956;SDS011;48483;44.640;7.494;2023-09-08T08:43:20;10.07;;;7.43;;
39956;SDS011;48483;44.640;7.494;2023-09-08T08:45:49;11.57;;;7.93;;
39956;SDS011;48483;44.640;7.494;2023-09-08T08:48:18;10.18;;;6.72;;
39956;SDS011;48483;44.640;7.494;2023-09-08T08:50:48;7.32;;;6.50;;
39956;SDS011;48483;44.640;7.494;2023-09-08T08:53:16;14.60;;;7.63;;
39956;SDS011;48483;44.640;7.494;2023-09-08T08:55:46;8.73;;;7.28;;
39956;SDS011;48483;44.640;7.494;2023-09-08T08:58:15;9.45;;;7.20;;
39956;SDS011;48483;44.640;7.494;2023-09-08T09:00:41;9.65;;;7.85;;
39956;SDS011;48483;44.640;7.494;2023-09-08T09:03:09;9.88;;;7.75;;
39956;SDS011;48483;44.640;7.494;2023-09-08T09:05:36;8.40;;;6.85;;
39956;SDS011;48483;44.640;7.494;2023-09-08T09:08:05;10.02;;;7.65;;
39956;SDS011;48483;44.640;7.494;2023-09-08T09:10:32;13.55;;;7.40;;
39956;SDS011;48483;44.640;7.494;2023-09-08T09:12:59;9.65;;;7.50;;
39956;SDS011;48483;44.640;7.494;2023-09-08T09:15:29;7.43;;;6.68;;
39956;SDS011;48483;44.640;7.494;2023-09-08T09:18:02;14.80;;;8.57;;
39956;SDS011;48483;44.640;7.494;2023-09-08T09:20:30;10.85;;;8.05;;
39956;SDS011;48483;44.640;7.494;2023-09-08T09:22:57;9.77;;;7.32;;
39956;SDS011;48483;44.640;7.494;2023-09-08T09:25:27;11.73;;;9.52;;
39956;SDS011;48483;44.640;7.494;2023-09-08T09:27:55;9.80;;;8.73;;
39956;SDS011;48483;44.640;7.494;2023-09-08T09:30:22;10.50;;;9.05;;
39956;SDS011;48483;44.640;7.494;2023-09-08T09:32:58;13.52;;;9.68;;
39956;SDS011;48483;44.640;7.494;2023-09-08T09:35:39;11.35;;;7.75;;
39956;SDS011;48483;44.640;7.494;2023-09-08T09:38:07;12.25;;;8.45;;
39956;SDS011;48483;44.640;7.494;2023-09-08T09:40:38;12.55;;;8.27;;
39956;SDS011;48483;44.640;7.494;2023-09-08T09:43:05;11.32;;;9.00;;
39956;SDS011;48483;44.640;7.494;2023-09-08T09:45:33;13.25;;;9.30;;
39956;SDS011;48483;44.640;7.494;2023-09-08T09:48:01;9.10;;;7.95;;
39956;SDS011;48483;44.640;7.494;2023-09-08T09:50:29;7.82;;;6.85;;
39956;SDS011;48483;44.640;7.494;2023-09-08T09:52:57;10.60;;;6.85;;
39956;SDS011;48483;44.640;7.494;2023-09-08T09:55:27;7.97;;;6.38;;
39956;SDS011;48483;44.640;7.494;2023-09-08T09:57:57;9.15;;;7.45;;
39956;SDS011;48483;44.640;7.494;2023-09-08T10:00:26;18.02;;;10.00;;
39956;SDS011;48483;44.640;7.494;2023-09-08T10:02:54;10.63;;;8.07;;
39956;SDS011;48483;44.640;7.494;2023-09-08T10:05:22;9.63;;;8.13;;
39956;SDS011;48483;44.640;7.494;2023-09-08T10:07:50;12.57;;;8.65;;
39956;SDS011;48483;44.640;7.494;2023-09-08T10:10:17;10.77;;;8.98;;
39956;SDS011;48483;44.640;7.494;2023-09-08T10:12:46;14.43;;;11.02;;
39956;SDS011;48483;44.640;7.494;2023-09-08T10:15:22;11.25;;;9.23;;
39956;SDS011;48483;44.640;7.494;2023-09-08T10:17:52;11.15;;;8.30;;
39956;SDS011;48483;44.640;7.494;2023-09-08T10:22:48;11.73;;;7.25;;
39956;SDS011;48483;44.640;7.494;2023-09-08T10:25:18;9.93;;;8.90;;
39956;SDS011;48483;44.640;7.494;2023-09-08T10:27:50;10.10;;;8.02;;
39956;SDS011;48483;44.640;7.494;2023-09-08T10:30:17;10.15;;;8.00;;
39956;SDS011;48483;44.640;7.494;2023-09-08T10:32:48;11.55;;;8.68;;
39956;SDS011;48483;44.640;7.494;2023-09-08T10:35:16;9.90;;;7.72;;
39956;SDS011;48483;44.640;7.494;2023-09-08T10:37:45;13.70;;;9.65;;
39956;SDS011;48483;44.640;7.494;2023-09-08T10:40:21;14.32;;;9.00;;
39956;SDS011;48483;44.640;7.494;2023-09-08T10:42:48;12.75;;;7.82;;
39956;SDS011;48483;44.640;7.494;2023-09-08T10:45:16;10.30;;;7.28;;
39956;SDS011;48483;44.640;7.494;2023-09-08T10:47:57;10.13;;;7.05;;
39956;SDS011;48483;44.640;7.494;2023-09-08T10:50:29;13.05;;;7.43;;
39956;SDS011;48483;44.640;7.494;2023-09-08T10:53:05;10.95;;;6.57;;
39956;SDS011;48483;44.640;7.494;2023-09-08T10:55:49;11.85;;;8.38;;
39956;SDS011;48483;44.640;7.494;2023-09-08T10:58:19;9.38;;;7.68;;
39956;SDS011;48483;44.640;7.494;2023-09-08T11:00:54;8.13;;;6.93;;
39956;SDS011;48483;44.640;7.494;2023-09-08T11:03:41;9.02;;;6.97;;
39956;SDS011;48483;44.640;7.494;2023-09-08T11:06:10;9.88;;;8.43;;
39956;SDS011;48483;44.640;7.494;2023-09-08T11:08:38;10.60;;;7.95;;
39956;SDS011;48483;44.640;7.494;2023-09-08T11:11:07;12.63;;;8.70;;
39956;SDS011;48483;44.640;7.494;2023-09-08T11:13:34;9.85;;;7.40;;
39956;SDS011;48483;44.640;7.494;2023-09-08T11:16:01;9.25;;;6.97;;
39956;SDS011;48483;44.640;7.494;2023-09-08T11:18:30;7.00;;;6.00;;
39956;SDS011;48483;44.640;7.494;2023-09-08T11:20:57;11.65;;;7.15;;
39956;SDS011;48483;44.640;7.494;2023-09-08T11:23:26;10.45;;;8.00;;
39956;SDS011;48483;44.640;7.494;2023-09-08T11:25:53;12.45;;;7.15;;
39956;SDS011;48483;44.640;7.494;2023-09-08T11:28:21;11.18;;;7.53;;
39956;SDS011;48483;44.640;7.494;2023-09-08T11:30:48;10.57;;;8.25;;
39956;SDS011;48483;44.640;7.494;2023-09-08T11:33:15;14.27;;;7.55;;
39956;SDS011;48483;44.640;7.494;2023-09-08T11:35:44;9.90;;;7.03;;
39956;SDS011;48483;44.640;7.494;2023-09-08T11:38:11;9.00;;;7.25;;
39956;SDS011;48483;44.640;7.494;2023-09-08T11:40:38;8.85;;;7.07;;
39956;SDS011;48483;44.640;7.494;2023-09-08T11:43:05;9.57;;;7.45;;
39956;SDS011;48483;44.640;7.494;2023-09-08T11:45:33;8.15;;;6.82;;
39956;SDS011;48483;44.640;7.494;2023-09-08T11:48:00;11.85;;;8.93;;
39956;SDS011;48483;44.640;7.494;2023-09-08T11:50:27;8.88;;;7.22;;
39956;SDS011;48483;44.640;7.494;2023-09-08T11:52:57;11.57;;;9.50;;
39956;SDS011;48483;44.640;7.494;2023-09-08T11:55:25;9.20;;;7.47;;
39956;SDS011;48483;44.640;7.494;2023-09-08T11:57:52;13.88;;;7.88;;
39956;SDS011;48483;44.640;7.494;2023-09-08T12:00:29;11.93;;;7.00;;
39956;SDS011;48483;44.640;7.494;2023-09-08T12:03:00;10.45;;;7.93;;
39956;SDS011;48483;44.640;7.494;2023-09-08T12:05:36;11.27;;;8.18;;
39956;SDS011;48483;44.640;7.494;2023-09-08T12:08:04;10.85;;;7.38;;
39956;SDS011;48483;44.640;7.494;2023-09-08T12:10:37;12.23;;;7.47;;
39956;SDS011;48483;44.640;7.494;2023-09-08T12:13:04;9.18;;;7.47;;
39956;SDS011;48483;44.640;7.494;2023-09-08T12:15:31;11.02;;;7.28;;
39956;SDS011;48483;44.640;7.494;2023-09-08T12:17:59;11.02;;;7.57;;
39956;SDS011;48483;44.640;7.494;2023-09-08T12:20:26;11.85;;;7.75;;
39956;SDS011;48483;44.640;7.494;2023-09-08T12:22:54;10.90;;;8.45;;
39956;SDS011;48483;44.640;7.494;2023-09-08T12:25:24;13.02;;;7.53;;
39956;SDS011;48483;44.640;7.494;2023-09-08T12:27:51;10.80;;;7.13;;
39956;SDS011;48483;44.640;7.494;2023-09-08T12:30:18;7.85;;;6.78;;
39956;SDS011;48483;44.640;7.494;2023-09-08T12:32:45;11.68;;;7.38;;
39956;SDS011;48483;44.640;7.494;2023-09-08T12:35:19;8.48;;;6.13;;
39956;SDS011;48483;44.640;7.494;2023-09-08T12:37:52;9.55;;;7.50;;
39956;SDS011;48483;44.640;7.494;2023-09-08T12:40:20;9.73;;;6.82;;
39956;SDS011;48483;44.640;7.494;2023-09-08T12:42:48;11.48;;;7.07;;
39956;SDS011;48483;44.640;7.494;2023-09-08T12:45:15;10.00;;;7.47;;
39956;SDS011;48483;44.640;7.494;2023-09-08T12:47:42;9.02;;;6.60;;
39956;SDS011;48483;44.640;7.494;2023-09-08T12:50:09;10.07;;;6.55;;
39956;SDS011;48483;44.640;7.494;2023-09-08T12:52:36;7.47;;;6.20;;
39956;SDS011;48483;44.640;7.494;2023-09-08T12:55:03;7.63;;;6.20;;
39956;SDS011;48483;44.640;7.494;2023-09-08T12:57:30;9.70;;;5.78;;
39956;SDS011;48483;44.640;7.494;2023-09-08T12:59:58;8.80;;;7.00;;
39956;SDS011;48483;44.640;7.494;2023-09-08T13:02:24;8.80;;;6.80;;
39956;SDS011;48483;44.640;7.494;2023-09-08T13:04:51;12.38;;;7.47;;
39956;SDS011;48483;44.640;7.494;2023-09-08T13:07:18;9.70;;;6.80;;
39956;SDS011;48483;44.640;7.494;2023-09-08T13:09:46;6.50;;;5.57;;
39956;SDS011;48483;44.640;7.494;2023-09-08T13:12:12;8.32;;;6.07;;
39956;SDS011;48483;44.640;7.494;2023-09-08T13:14:39;7.97;;;6.03;;
39956;SDS011;48483;44.640;7.494;2023-09-08T13:17:07;8.02;;;5.93;;
39956;SDS011;48483;44.640;7.494;2023-09-08T13:19:34;6.82;;;5.00;;
39956;SDS011;48483;44.640;7.494;2023-09-08T13:22:01;16.90;;;6.15;;
39956;SDS011;48483;44.640;7.494;2023-09-08T13:24:27;9.32;;;6.30;;
39956;SDS011;48483;44.640;7.494;2023-09-08T13:26:54;6.90;;;5.93;;
39956;SDS011;48483;44.640;7.494;2023-09-08T13:29:21;5.97;;;5.38;;
39956;SDS011;48483;44.640;7.494;2023-09-08T13:31:47;11.20;;;7.07;;
39956;SDS011;48483;44.640;7.494;2023-09-08T13:34:15;9.80;;;6.65;;
39956;SDS011;48483;44.640;7.494;2023-09-08T13:36:42;7.78;;;6.07;;
39956;SDS011;48483;44.640;7.494;2023-09-08T13:39:09;9.43;;;6.97;;
39956;SDS011;48483;44.640;7.494;2023-09-08T13:41:48;10.55;;;6.18;;
39956;SDS011;48483;44.640;7.494;2023-09-08T13:44:16;8.10;;;7.10;;
39956;SDS011;48483;44.640;7.494;2023-09-08T13:46:43;9.75;;;6.60;;
39956;SDS011;48483;44.640;7.494;2023-09-08T13:49:11;10.07;;;6.50;;
39956;SDS011;48483;44.640;7.494;2023-09-08T13:51:39;12.32;;;6.03;;
39956;SDS011;48483;44.640;7.494;2023-09-08T13:54:05;7.43;;;5.78;;
39956;SDS011;48483;44.640;7.494;2023-09-08T13:56:33;9.05;;;7.10;;
39956;SDS011;48483;44.640;7.494;2023-09-08T13:58:59;8.60;;;6.88;;
39956;SDS011;48483;44.640;7.494;2023-09-08T14:01:27;7.07;;;6.20;;
39956;SDS011;48483;44.640;7.494;2023-09-08T14:03:55;9.35;;;6.65;;
39956;SDS011;48483;44.640;7.494;2023-09-08T14:06:22;7.78;;;6.30;;
39956;SDS011;48483;44.640;7.494;2023-09-08T14:08:51;9.45;;;8.32;;
39956;SDS011;48483;44.640;7.494;2023-09-08T14:11:17;10.02;;;9.00;;
39956;SDS011;48483;44.640;7.494;2023-09-08T14:13:44;9.50;;;7.57;;
39956;SDS011;48483;44.640;7.494;2023-09-08T14:16:11;10.57;;;8.35;;
39956;SDS011;48483;44.640;7.494;2023-09-08T14:18:38;13.30;;;10.30;;
39956;SDS011;48483;44.640;7.494;2023-09-08T14:21:05;13.95;;;9.75;;
39956;SDS011;48483;44.640;7.494;2023-09-08T14:23:32;9.90;;;7.97;;
39956;SDS011;48483;44.640;7.494;2023-09-08T14:26:05;7.68;;;6.15;;
39956;SDS011;48483;44.640;7.494;2023-09-08T14:28:32;10.73;;;6.50;;
39956;SDS011;48483;44.640;7.494;2023-09-08T14:30:59;8.35;;;6.45;;
39956;SDS011;48483;44.640;7.494;2023-09-08T14:33:26;10.63;;;5.93;;
39956;SDS011;48483;44.640;7.494;2023-09-08T14:36:00;8.90;;;6.53;;
39956;SDS011;48483;44.640;7.494;2023-09-08T14:38:26;8.10;;;6.32;;
39956;SDS011;48483;44.640;7.494;2023-09-08T14:40:57;8.13;;;6.50;;
39956;SDS011;48483;44.640;7.494;2023-09-08T14:43:26;8.85;;;7.45;;
39956;SDS011;48483;44.640;7.494;2023-09-08T14:45:53;9.20;;;6.22;;
39956;SDS011;48483;44.640;7.494;2023-09-08T14:48:23;7.77;;;6.37;;
39956;SDS011;48483;44.640;7.494;2023-09-08T14:50:50;7.93;;;6.40;;
39956;SDS011;48483;44.640;7.494;2023-09-08T14:53:17;9.45;;;6.30;;
39956;SDS011;48483;44.640;7.494;2023-09-08T14:55:44;7.28;;;6.40;;
39956;SDS011;48483;44.640;7.494;2023-09-08T14:58:13;9.60;;;7.68;;